• Join FlightAware (Why Join?)
  • Login
  • US Flag 
06:24AM EDT


 

Airport Tracker/Info


-or-


 

Live Flight TrackerFlight Track Log ✈ JAL110 ✈ 06-May-2013 ✈ RJOO / ITM - RJTT / HND

Flight Track Log - Related Links

Times and Time Zones

All times are in EDT time to prevent confusion due to time zone crossing. See the JAL110 flight status page for this flight to view local times or setup timezone preferences in your user account.

Time Position Orientation Groundspeed Altitude Reporting Facility
EDT Latitude Longitude Course Direction KTS MPH feet Rate Location/Type
08:45PM 34.8468 135.7529 77° East  Level Estimated
08:46PM 34.8671 135.8579 77° East  Level Estimated
08:47PM 34.8872 135.9630 77° East  Level Estimated
08:48PM 34.9073 136.0681 77° East  Level Estimated
08:49PM 34.9273 136.1732 77° East  Level Estimated
08:50PM 34.9472 136.2784 77° East  Level Estimated
08:51PM 34.9675 136.3863 77° East  Level Estimated
08:52PM 34.9877 136.4942 77° East  Level Estimated
08:53PM 35.0078 136.6022 77° East  Level Estimated
08:54PM 35.0278 136.7103 77° East  Level Estimated
08:55PM 35.0477 136.8184 77° East  Level Estimated
08:56PM 35.0675 136.9265 77° East  Level Estimated
08:57PM 35.0872 137.0348 77° East  Level Estimated
08:58PM 35.1068 137.1430 77° East  Level Estimated
08:59PM 35.1264 137.2513 78° East  Level Estimated
09:00PM 35.1458 137.3597 78° East  Level Estimated
09:01PM 35.1651 137.4681 78° East  Level Estimated
09:02PM 35.1843 137.5766 78° East  Level Estimated
09:03PM 35.2035 137.6851 78° East  Level Estimated
09:04PM 35.2225 137.7937 78° East  Level Estimated
09:05PM 35.2415 137.9023 78° East  Level Estimated
09:06PM 35.2603 138.0110 78° East  Level Estimated
09:07PM 35.2791 138.1197 78° East  Level Estimated
09:08PM 35.2977 138.2284 78° East  Level Estimated
09:09PM 35.3163 138.3373 78° East  Level Estimated
09:10PM 35.3347 138.4461 78° East  Level Estimated
09:11PM 35.3531 138.5551 78° East  Level Estimated
09:12PM 35.3714 138.6640 78° East  Level Estimated
09:13PM 35.3895 138.7730 78° East  Level Estimated
09:14PM 35.4076 138.8821 78° East  Level Estimated
09:15PM 35.4256 138.9912 79° East  Level Estimated
09:16PM 35.4434 139.1004 79° East  Level Estimated
09:17PM 35.4612 139.2096 79° East  Level Estimated
09:18PM 35.4789 139.3189 79° East  Level Estimated
09:19PM 35.4965 139.4282 79° East  Level Estimated
09:20PM 35.5139 139.5375 79° East  Level Estimated
09:21PM 35.5313 139.6469 79° East  Level Estimated
09:22PM 35.5486 139.7564 79° East  Level Estimated
09:23PM 35.5523 139.7797 79° East  Level Estimated
09:24PM 35.5523 139.7797 122° Southeast  Level Estimated
09:25PM 35.5523 139.7797 122° Southeast  Level Estimated
09:26PM 35.5523 139.7797 122° Southeast  Level Estimated
09:27PM 35.5523 139.7797 122° Southeast  Level Estimated
09:28PM 35.5523 139.7797 122° Southeast  Level Estimated
09:29PM 35.5523 139.7797 122° Southeast  Level Estimated
09:30PM 35.5523 139.7797 122° Southeast  Level Estimated
09:31PM 35.5523 139.7797 122° Southeast  Level Estimated